SBKP/CPQ METAR and TAF weather

Enter ICAO airport designator
Station Type Date Time Source
SBKP METAR 2021/04/14 20:00 UTC NOAA

SBKP 142000Z 14011KT CAVOK 25/15 Q1017


Station Type Date Time Source
SBKP Decoded METAR 2021/04/14 20:00 UTC NOAA

Campinas Aeroporto , Brazil (SBKP) 23-00S 047-08W 661M
Apr 14, 2021 - 04:00 PM EDT / 2021.04.14 2000 UTC
Wind: from the SE (140 degrees) at 13 MPH (11 KT):0
Visibility: greater than 7 mile(s):0
Temperature: 77 F (25 C)
Dew Point: 59 F (15 C)
Relative Humidity: 53%
Pressure (altimeter): 30.03 in. Hg (1017 hPa)
ob: SBKP 142000Z 14011KT CAVOK 25/15 Q1017
cycle: 20

Station Type Date Time Source
SBKP TAF 2021/04/14 18:37 UTC NOAA

TAF SBKP 141400Z 1418/1518 12012KT 9999 SCT040 TN15/1508Z TX26/1517Z
BECMG 1420/1422 CAVOK
BECMG 1506/1508 11010KT
BECMG 1513/1515 9999 FEW040
RMK PGH

Example: see airport list